Time;durP1;ratioP1;P1;durP2;ratioP2;P2;SDS_P1;SDS_P2;PMS_P1;PMS_P2;Temp;Humidity;BMP_temperature;BMP_pressure;BME280_temperature;BME280_humidity;BME280_pressure;Samples;Min_cycle;Max_cycle;Signal;HPM_P1;HPM_P2
2023/04/17 00:02:17;;;;;;;52.70;30.60;;;7.90;99.90;;;;;;5011444;28;213350;-72
2023/04/17 00:04:44;;;;;;;51.22;30.52;;;7.90;99.90;;;;;;5069280;28;20063;-71
2023/04/17 00:07:10;;;;;;;51.83;30.17;;;7.90;99.90;;;;;;5011866;28;202545;-73
2023/04/17 00:09:36;;;;;;;51.33;29.85;;;7.90;99.90;;;;;;5065670;28;20533;-71
2023/04/17 00:12:02;;;;;;;51.15;30.20;;;8.00;99.90;;;;;;5010936;28;215421;-73
2023/04/17 00:14:28;;;;;;;52.15;30.13;;;7.90;99.90;;;;;;5071017;28;20525;-71
2023/04/17 00:16:55;;;;;;;54.45;31.00;;;8.00;99.90;;;;;;5009423;28;206398;-71
2023/04/17 00:19:21;;;;;;;50.30;29.80;;;7.90;99.90;;;;;;5064265;28;20778;-71
2023/04/17 00:21:47;;;;;;;50.47;30.13;;;7.90;99.90;;;;;;4995172;28;206829;-72
2023/04/17 00:24:13;;;;;;;53.63;32.33;;;7.90;99.90;;;;;;5067741;28;20048;-72
2023/04/17 00:26:39;;;;;;;52.92;31.00;;;7.90;99.90;;;;;;5019931;28;215285;-71
2023/04/17 00:29:05;;;;;;;57.85;30.67;;;8.00;99.90;;;;;;5058171;28;20070;-71
2023/04/17 00:31:31;;;;;;;54.63;30.98;;;8.00;99.90;;;;;;5015202;28;212941;-71
2023/04/17 00:34:00;;;;;;;52.47;31.48;;;8.00;99.90;;;;;;5058607;28;20051;-71
2023/04/17 00:36:26;;;;;;;57.30;32.35;;;8.10;99.90;;;;;;5009335;28;218396;-72
2023/04/17 00:38:52;;;;;;;52.15;31.50;;;8.10;99.90;;;;;;5067254;28;20045;-72
2023/04/17 00:41:18;;;;;;;52.93;32.83;;;8.10;99.90;;;;;;5015812;28;219970;-72
2023/04/17 00:43:44;;;;;;;56.95;31.80;;;8.10;99.90;;;;;;5073062;28;20035;-72
2023/04/17 00:46:11;;;;;;;53.92;32.92;;;8.10;99.90;;;;;;5019356;28;215715;-72
2023/04/17 00:48:39;;;;;;;52.97;31.63;;;8.10;99.90;;;;;;5097679;28;20053;-71
2023/04/17 00:51:06;;;;;;;58.33;33.25;;;8.10;99.90;;;;;;5037173;28;218083;-70
2023/04/17 00:53:32;;;;;;;53.95;32.10;;;8.10;99.90;;;;;;5037600;28;20461;-71
2023/04/17 00:56:02;;;;;;;58.70;33.92;;;8.10;99.90;;;;;;5060664;28;20056;-71
2023/04/17 00:58:28;;;;;;;58.33;33.53;;;8.10;99.90;;;;;;5005239;28;236306;-70
2023/04/17 01:00:54;;;;;;;56.75;33.75;;;8.10;99.90;;;;;;5081574;28;20048;-71
2023/04/17 01:03:21;;;;;;;58.55;34.28;;;8.10;99.90;;;;;;5027177;28;218528;-71
2023/04/17 01:05:50;;;;;;;54.53;30.92;;;8.10;99.90;;;;;;5081644;28;20053;-71
2023/04/17 01:08:17;;;;;;;58.40;33.40;;;8.10;99.90;;;;;;5007934;28;212117;-71
2023/04/17 01:10:43;;;;;;;64.32;34.15;;;8.10;99.90;;;;;;5077120;28;20055;-72
2023/04/17 01:13:09;;;;;;;55.88;33.55;;;8.10;99.90;;;;;;4999330;28;212085;-70
2023/04/17 01:15:36;;;;;;;53.90;32.15;;;8.10;99.90;;;;;;5072902;28;20537;-71
2023/04/17 01:18:02;;;;;;;57.45;34.03;;;8.10;99.90;;;;;;5013407;28;204126;-71
2023/04/17 01:20:29;;;;;;;60.08;35.25;;;8.10;99.90;;;;;;5076876;28;20529;-72
2023/04/17 01:22:59;;;;;;;60.80;35.35;;;8.10;99.90;;;;;;5013697;28;201313;-71
2023/04/17 01:25:29;;;;;;;58.78;35.35;;;8.10;99.90;;;;;;5074798;28;20063;-71
2023/04/17 01:27:55;;;;;;;60.22;35.25;;;8.10;99.90;;;;;;5004539;28;217153;-71
2023/04/17 01:30:21;;;;;;;65.63;35.97;;;8.10;99.90;;;;;;5076115;28;20048;-71
2023/04/17 01:32:47;;;;;;;64.63;37.28;;;8.00;99.90;;;;;;5017009;28;215058;-71
2023/04/17 01:35:14;;;;;;;67.35;38.67;;;8.00;99.90;;;;;;5075825;28;20043;-72
2023/04/17 01:37:40;;;;;;;67.80;37.20;;;8.10;99.90;;;;;;5004574;28;208940;-70
2023/04/17 01:40:07;;;;;;;64.72;37.20;;;8.10;99.90;;;;;;5067839;28;20063;-71
2023/04/17 01:42:33;;;;;;;68.25;38.10;;;8.00;99.90;;;;;;5020986;28;210195;-71
2023/04/17 01:44:59;;;;;;;64.93;37.35;;;8.10;99.90;;;;;;5062010;28;20056;-71
2023/04/17 01:47:25;;;;;;;64.35;36.92;;;8.00;99.90;;;;;;5016262;28;215304;-72
2023/04/17 01:49:51;;;;;;;62.63;36.75;;;8.00;99.90;;;;;;5070907;28;20083;-71
2023/04/17 01:52:17;;;;;;;62.28;37.55;;;8.10;99.90;;;;;;5021013;28;211778;-70
2023/04/17 01:54:44;;;;;;;64.93;36.88;;;8.00;99.90;;;;;;5067748;28;20059;-71
2023/04/17 01:57:10;;;;;;;65.65;37.03;;;8.00;99.90;;;;;;4985693;28;215102;-71
2023/04/17 01:59:36;;;;;;;69.47;37.47;;;8.00;99.90;;;;;;5054399;28;20060;-71
2023/04/17 02:02:02;;;;;;;73.97;37.65;;;8.00;99.90;;;;;;5020255;27;204372;-70
2023/04/17 02:04:28;;;;;;;63.78;36.63;;;8.00;99.90;;;;;;5066697;28;20044;-71
2023/04/17 02:06:54;;;;;;;66.93;36.75;;;8.00;99.90;;;;;;5020345;28;214537;-71
2023/04/17 02:09:20;;;;;;;65.22;36.25;;;8.00;99.90;;;;;;5071829;28;20048;-70
2023/04/17 02:11:47;;;;;;;68.68;37.45;;;8.00;99.90;;;;;;5014330;28;212430;-71
2023/04/17 02:14:13;;;;;;;68.18;36.75;;;8.00;99.90;;;;;;5065157;28;20048;-71
2023/04/17 02:16:44;;;;;;;67.25;37.20;;;8.00;99.90;;;;;;5007252;28;216062;-71
2023/04/17 02:19:11;;;;;;;64.70;34.63;;;8.00;99.90;;;;;;5067952;28;20059;-72
2023/04/17 02:21:37;;;;;;;67.45;37.65;;;8.00;99.90;;;;;;5010259;28;221811;-71
2023/04/17 02:24:04;;;;;;;62.00;36.22;;;8.00;99.90;;;;;;5059048;28;20052;-72
2023/04/17 02:26:30;;;;;;;67.90;38.92;;;8.00;99.90;;;;;;5015721;28;206939;-71
2023/04/17 02:28:56;;;;;;;68.63;36.40;;;8.00;99.90;;;;;;5074826;28;20063;-71
2023/04/17 02:31:23;;;;;;;69.60;36.45;;;7.90;99.90;;;;;;5016833;28;206636;-70
2023/04/17 02:33:49;;;;;;;71.25;37.90;;;7.90;99.90;;;;;;5077060;28;20514;-70
2023/04/17 02:36:15;;;;;;;70.90;38.17;;;7.90;99.90;;;;;;5015701;28;214113;-72
2023/04/17 02:38:41;;;;;;;67.10;36.22;;;7.90;99.90;;;;;;5075709;28;20056;-72
2023/04/17 02:41:07;;;;;;;71.05;37.50;;;7.90;99.90;;;;;;5032060;28;211081;-70
2023/04/17 02:43:34;;;;;;;71.43;36.70;;;7.90;99.90;;;;;;5047847;28;20048;-71
2023/04/17 02:46:00;;;;;;;74.30;38.08;;;7.90;99.90;;;;;;5069784;28;212252;-70
2023/04/17 02:48:26;;;;;;;72.57;35.60;;;7.90;99.90;;;;;;5044486;28;206995;-71
2023/04/17 02:50:53;;;;;;;79.45;36.67;;;7.90;99.90;;;;;;5078058;28;20401;-72
2023/04/17 02:53:19;;;;;;;63.80;35.92;;;7.90;99.90;;;;;;5022517;28;211891;-71
2023/04/17 02:55:45;;;;;;;76.25;35.20;;;7.80;99.90;;;;;;5081623;28;20063;-71
2023/04/17 02:58:12;;;;;;;73.70;35.50;;;7.80;99.90;;;;;;4969654;28;216661;-71
2023/04/17 03:00:38;;;;;;;84.85;37.10;;;7.90;99.90;;;;;;5074114;28;20052;-71
2023/04/17 03:03:04;;;;;;;79.10;37.25;;;7.80;99.90;;;;;;5021925;28;213863;-71
2023/04/17 03:05:30;;;;;;;73.20;36.85;;;7.80;99.90;;;;;;5080818;28;20052;-71
2023/04/17 03:07:58;;;;;;;75.07;36.55;;;7.80;99.90;;;;;;5025253;28;212863;-71
2023/04/17 03:10:24;;;;;;;76.35;35.58;;;7.80;99.90;;;;;;5075870;28;20650;-71
2023/04/17 03:12:50;;;;;;;68.88;36.78;;;7.70;99.90;;;;;;5011883;28;211666;-71
2023/04/17 03:15:16;;;;;;;64.43;34.38;;;7.70;99.90;;;;;;5071409;28;20079;-71
2023/04/17 03:17:42;;;;;;;68.13;35.03;;;7.80;99.90;;;;;;5011433;28;213393;-71
2023/04/17 03:20:08;;;;;;;67.50;34.55;;;7.80;99.90;;;;;;5074578;28;20529;-71
2023/04/17 03:22:35;;;;;;;81.00;35.90;;;7.70;99.90;;;;;;5034823;28;161847;-70
2023/04/17 03:25:02;;;;;;;83.70;36.70;;;7.70;99.90;;;;;;5081447;28;20048;-71
2023/04/17 03:27:28;;;;;;;100.82;35.28;;;7.80;99.90;;;;;;5006205;28;156521;-71
2023/04/17 03:29:55;;;;;;;91.60;34.50;;;7.80;99.90;;;;;;5068754;28;20048;-71
2023/04/17 03:32:21;;;;;;;100.28;34.50;;;7.80;99.90;;;;;;5002196;28;206556;-72
2023/04/17 03:34:47;;;;;;;83.00;33.90;;;7.80;99.90;;;;;;5060075;28;20052;-70
2023/04/17 03:37:13;;;;;;;85.70;33.97;;;7.80;99.90;;;;;;5008311;28;209441;-71
2023/04/17 03:39:39;;;;;;;106.68;34.95;;;7.70;99.90;;;;;;5073836;28;20052;-71
2023/04/17 03:42:06;;;;;;;76.25;34.40;;;7.60;99.90;;;;;;5016469;28;210397;-71
2023/04/17 03:44:32;;;;;;;96.72;35.33;;;7.70;99.90;;;;;;5074414;28;20151;-71
2023/04/17 03:46:59;;;;;;;102.22;35.22;;;7.60;99.90;;;;;;5017165;28;206932;-72
2023/04/17 03:49:25;;;;;;;103.53;34.47;;;7.60;99.90;;;;;;5052493;28;20637;-71
2023/04/17 03:51:51;;;;;;;87.50;32.63;;;7.60;99.90;;;;;;5011766;28;243530;-71
2023/04/17 03:54:17;;;;;;;84.63;33.00;;;7.60;99.90;;;;;;5054452;28;20544;-70
2023/04/17 03:56:43;;;;;;;153.68;34.53;;;7.60;99.90;;;;;;4995573;28;210030;-71
2023/04/17 03:59:09;;;;;;;120.03;31.92;;;7.60;99.90;;;;;;5059357;28;20057;-70
2023/04/17 04:01:37;;;;;;;118.10;32.60;;;7.50;99.90;;;;;;5004876;28;214289;-71
2023/04/17 04:04:03;;;;;;;130.60;34.17;;;7.60;99.90;;;;;;5061064;28;20036;-72
2023/04/17 04:06:30;;;;;;;111.72;33.72;;;7.50;99.90;;;;;;5008643;28;206380;-71
2023/04/17 04:08:56;;;;;;;164.82;33.85;;;7.50;99.90;;;;;;5044756;28;20529;-71
2023/04/17 04:11:22;;;;;;;122.55;32.47;;;7.50;99.90;;;;;;5011000;28;218262;-71
2023/04/17 04:13:48;;;;;;;127.72;33.35;;;7.50;99.90;;;;;;5073173;28;20051;-72
2023/04/17 04:16:14;;;;;;;140.17;32.17;;;7.50;99.90;;;;;;5016157;28;215690;-71
2023/04/17 04:18:40;;;;;;;158.20;33.13;;;7.50;99.90;;;;;;5072814;28;20042;-72
2023/04/17 04:21:06;;;;;;;150.57;31.25;;;7.60;99.90;;;;;;5024510;28;209782;-70
2023/04/17 04:23:33;;;;;;;82.78;30.08;;;7.50;99.90;;;;;;5029317;28;20041;-71
2023/04/17 04:26:00;;;;;;;93.05;30.70;;;7.50;99.90;;;;;;5073921;28;20059;-71
2023/04/17 04:28:26;;;;;;;76.50;30.08;;;7.50;99.90;;;;;;4981389;28;206130;-71
2023/04/17 04:30:54;;;;;;;68.25;30.83;;;7.40;99.90;;;;;;5054744;28;20055;-71
2023/04/17 04:33:20;;;;;;;75.43;32.50;;;7.50;99.90;;;;;;4997989;28;219939;-71
2023/04/17 04:35:50;;;;;;;113.13;33.55;;;7.50;99.90;;;;;;5055715;28;20521;-71
2023/04/17 04:38:16;;;;;;;87.20;31.58;;;7.40;99.90;;;;;;5008775;28;164837;-71
2023/04/17 04:40:48;;;;;;;118.55;31.17;;;7.40;99.90;;;;;;5055679;28;20056;-71
2023/04/17 04:43:14;;;;;;;145.05;32.33;;;7.50;99.90;;;;;;4994154;28;215419;-71
2023/04/17 04:45:40;;;;;;;162.05;33.60;;;7.50;99.90;;;;;;5049518;28;20065;-72
2023/04/17 04:48:06;;;;;;;114.47;31.35;;;7.40;99.90;;;;;;4984302;28;205450;-70
2023/04/17 04:50:32;;;;;;;192.48;33.38;;;7.40;99.90;;;;;;5067798;28;20853;-71
2023/04/17 04:52:59;;;;;;;163.02;34.00;;;7.40;99.90;;;;;;5017089;28;223171;-71
2023/04/17 04:55:25;;;;;;;221.60;35.03;;;7.40;99.90;;;;;;5069343;28;20751;-71
2023/04/17 04:57:53;;;;;;;128.25;32.17;;;7.40;99.90;;;;;;5002022;28;212473;-71
2023/04/17 05:00:19;;;;;;;151.63;34.58;;;7.40;99.90;;;;;;5071061;28;20060;-72
2023/04/17 05:02:45;;;;;;;290.58;36.63;;;7.30;99.90;;;;;;5006098;28;179622;-71
2023/04/17 05:05:11;;;;;;;133.43;35.15;;;7.40;99.90;;;;;;5083875;28;20060;-70
2023/04/17 05:07:37;;;;;;;143.07;33.97;;;7.40;99.90;;;;;;4991678;28;84280;-71
2023/04/17 05:10:05;;;;;;;189.63;36.42;;;7.40;99.90;;;;;;5068660;28;20053;-72
2023/04/17 05:12:31;;;;;;;228.13;36.47;;;7.40;99.90;;;;;;5018033;28;213361;-71
2023/04/17 05:14:57;;;;;;;201.25;35.15;;;7.40;99.90;;;;;;5071580;28;20040;-71
2023/04/17 05:17:24;;;;;;;146.32;34.47;;;7.40;99.90;;;;;;5004386;28;215585;-72
2023/04/17 05:19:50;;;;;;;223.18;36.78;;;7.40;99.90;;;;;;5075699;28;20055;-71
2023/04/17 05:22:16;;;;;;;226.38;35.05;;;7.40;99.90;;;;;;5007678;28;205608;-71
2023/04/17 05:24:42;;;;;;;276.35;36.30;;;7.50;99.90;;;;;;5076140;28;20402;-72
2023/04/17 05:27:08;;;;;;;235.45;36.25;;;7.40;99.90;;;;;;5006034;28;214185;-71
2023/04/17 05:29:36;;;;;;;309.52;37.45;;;7.40;99.90;;;;;;5056525;28;20061;-71
2023/04/17 05:32:02;;;;;;;316.15;41.20;;;7.40;99.90;;;;;;5015122;28;206735;-71
2023/04/17 05:34:28;;;;;;;233.57;37.80;;;7.40;99.90;;;;;;5061644;28;20158;-71
2023/04/17 05:36:54;;;;;;;316.27;39.47;;;7.40;99.90;;;;;;5017125;28;208901;-70
2023/04/17 05:39:20;;;;;;;350.77;39.70;;;7.40;99.90;;;;;;5077895;28;20052;-70
2023/04/17 05:41:46;;;;;;;242.88;38.55;;;7.40;99.90;;;;;;5020318;28;217801;-70
2023/04/17 05:44:12;;;;;;;211.93;38.58;;;7.50;99.90;;;;;;5072342;28;20052;-71
2023/04/17 05:46:39;;;;;;;246.10;41.55;;;7.50;99.90;;;;;;5018392;28;218709;-71
2023/04/17 05:49:05;;;;;;;202.15;40.60;;;7.60;99.90;;;;;;5068114;28;20059;-71
2023/04/17 05:51:31;;;;;;;138.20;37.78;;;7.60;99.90;;;;;;5007644;28;181506;-71
2023/04/17 05:53:57;;;;;;;121.75;37.30;;;7.60;99.90;;;;;;5052058;28;20056;-72
2023/04/17 05:56:23;;;;;;;100.10;37.45;;;7.70;99.90;;;;;;4998788;28;215429;-69
2023/04/17 05:58:49;;;;;;;100.20;35.80;;;7.70;99.90;;;;;;5055364;28;20585;-71
2023/04/17 06:01:21;;;;;;;98.10;36.00;;;7.70;99.90;;;;;;4998319;28;215543;-69
2023/04/17 06:03:47;;;;;;;110.28;37.17;;;7.60;99.90;;;;;;5054653;28;20526;-68
2023/04/17 06:06:13;;;;;;;126.10;34.43;;;7.70;99.90;;;;;;4991374;28;251872;-71
2023/04/17 06:08:39;;;;;;;109.82;35.15;;;7.60;99.90;;;;;;5077252;28;20047;-70
2023/04/17 06:11:05;;;;;;;98.32;35.33;;;7.60;99.90;;;;;;5034977;28;209727;-70
2023/04/17 06:13:32;;;;;;;94.32;35.78;;;7.70;99.90;;;;;;5054350;28;20060;-71
2023/04/17 06:15:58;;;;;;;84.53;35.97;;;7.70;99.90;;;;;;5075640;28;20063;-71
2023/04/17 06:18:24;;;;;;;96.90;37.28;;;7.70;99.90;;;;;;4987576;28;206639;-70
2023/04/17 06:20:50;;;;;;;87.88;35.55;;;7.80;99.90;;;;;;5055807;28;20048;-71
2023/04/17 06:23:16;;;;;;;112.53;37.67;;;7.80;99.90;;;;;;5016751;28;216040;-70
2023/04/17 06:25:42;;;;;;;73.75;35.67;;;7.80;99.90;;;;;;5084005;28;20048;-71
2023/04/17 06:28:09;;;;;;;96.78;36.22;;;7.90;99.90;;;;;;4981380;28;210334;-69
2023/04/17 06:30:35;;;;;;;94.82;37.25;;;7.90;99.90;;;;;;5063091;28;20143;-69
2023/04/17 06:33:01;;;;;;;76.65;37.33;;;8.00;99.90;;;;;;5012454;28;211669;-70
2023/04/17 06:35:27;;;;;;;89.78;39.83;;;8.00;99.90;;;;;;5064941;28;20481;-69
2023/04/17 06:37:53;;;;;;;92.50;38.22;;;8.10;99.90;;;;;;4988761;28;205738;-70
2023/04/17 06:40:19;;;;;;;81.18;36.88;;;8.10;99.90;;;;;;5053761;28;20621;-70
2023/04/17 06:42:45;;;;;;;78.00;39.40;;;8.30;99.90;;;;;;5002499;28;211008;-70
2023/04/17 06:45:12;;;;;;;69.07;37.65;;;8.20;99.90;;;;;;5053099;28;20055;-70
2023/04/17 06:47:38;;;;;;;61.30;35.72;;;8.10;99.90;;;;;;4995228;28;257174;-70
2023/04/17 06:50:04;;;;;;;61.25;36.53;;;8.20;99.90;;;;;;5068043;28;20052;-69
2023/04/17 06:52:30;;;;;;;60.28;36.90;;;8.30;99.90;;;;;;5020104;28;223406;-69
2023/04/17 06:54:58;;;;;;;66.85;37.92;;;8.30;99.90;;;;;;5074996;28;20518;-69
2023/04/17 06:57:24;;;;;;;80.28;38.90;;;8.40;99.90;;;;;;5004345;28;217994;-70
2023/04/17 06:59:50;;;;;;;68.05;37.55;;;8.40;99.90;;;;;;5072652;28;20059;-70
2023/04/17 07:02:16;;;;;;;63.10;38.97;;;8.50;99.90;;;;;;5009743;28;219545;-69
2023/04/17 07:04:42;;;;;;;65.78;38.60;;;8.50;99.90;;;;;;5071927;28;20041;-70
2023/04/17 07:07:08;;;;;;;63.45;38.75;;;8.60;99.90;;;;;;5019952;28;213569;-70
2023/04/17 07:09:34;;;;;;;68.05;39.17;;;8.70;99.90;;;;;;5076689;28;20137;-71
2023/04/17 07:12:02;;;;;;;60.20;36.95;;;8.70;99.90;;;;;;5018704;28;215423;-69
2023/04/17 07:14:28;;;;;;;62.67;39.80;;;8.80;99.90;;;;;;5075566;28;20789;-70
2023/04/17 07:16:55;;;;;;;62.22;38.55;;;8.90;99.90;;;;;;5013505;28;222005;-71
2023/04/17 07:19:21;;;;;;;63.20;38.42;;;8.90;99.90;;;;;;5068523;28;20505;-71
2023/04/17 07:21:47;;;;;;;63.22;37.95;;;8.90;99.90;;;;;;5016459;28;210402;-71
2023/04/17 07:24:13;;;;;;;62.42;37.13;;;9.00;99.90;;;;;;5079474;28;20059;-70
2023/04/17 07:26:39;;;;;;;58.53;38.22;;;9.10;99.90;;;;;;5005797;28;213798;-70
2023/04/17 07:29:05;;;;;;;57.33;36.72;;;9.10;99.90;;;;;;5058760;28;20056;-69
2023/04/17 07:31:31;;;;;;;64.05;38.50;;;9.10;99.90;;;;;;4998997;28;188313;-70
2023/04/17 07:33:57;;;;;;;56.60;36.47;;;9.20;99.90;;;;;;5016658;28;20057;-70
2023/04/17 07:36:23;;;;;;;60.47;37.60;;;9.40;99.90;;;;;;4994557;28;213053;-70
2023/04/17 07:38:49;;;;;;;56.20;34.90;;;9.60;99.90;;;;;;5042796;28;20056;-71
2023/04/17 07:41:15;;;;;;;62.78;36.33;;;9.70;99.90;;;;;;4993470;28;223751;-70
2023/04/17 07:43:42;;;;;;;54.20;36.38;;;9.80;99.90;;;;;;5046980;28;20056;-69
2023/04/17 07:46:08;;;;;;;54.15;36.08;;;9.80;99.90;;;;;;4994205;28;219891;-70
2023/04/17 07:48:34;;;;;;;53.60;35.00;;;9.90;99.90;;;;;;5039911;28;20055;-69
2023/04/17 07:51:00;;;;;;;50.33;34.33;;;10.00;99.90;;;;;;5047537;28;212660;-68
2023/04/17 07:53:27;;;;;;;54.13;35.10;;;9.90;99.90;;;;;;5013772;28;214927;-72
2023/04/17 07:55:54;;;;;;;49.80;33.53;;;9.90;99.90;;;;;;5067150;28;20053;-71
2023/04/17 07:58:22;;;;;;;48.20;34.00;;;10.00;99.90;;;;;;4990234;28;181477;-70
2023/04/17 08:00:49;;;;;;;44.75;34.20;;;9.90;99.90;;;;;;5072931;28;20060;-69
2023/04/17 08:03:15;;;;;;;48.50;34.47;;;9.90;99.90;;;;;;5015570;28;222217;-70
2023/04/17 08:05:41;;;;;;;49.33;34.63;;;10.10;99.90;;;;;;5059126;28;20530;-69
2023/04/17 08:08:07;;;;;;;46.00;34.17;;;10.50;99.90;;;;;;5011718;28;212720;-69
2023/04/17 08:10:34;;;;;;;46.15;32.72;;;10.60;99.90;;;;;;5054691;28;20055;-69
2023/04/17 08:13:00;;;;;;;40.42;31.33;;;10.70;99.90;;;;;;4985267;28;214224;-70
2023/04/17 08:15:27;;;;;;;40.65;31.75;;;10.80;99.90;;;;;;5056931;28;20045;-70
2023/04/17 08:17:53;;;;;;;40.53;31.85;;;11.10;99.90;;;;;;4995042;28;224553;-70
2023/04/17 08:20:19;;;;;;;41.58;32.13;;;11.20;99.90;;;;;;5056597;28;20170;-70
2023/04/17 08:22:45;;;;;;;39.30;31.15;;;11.40;99.90;;;;;;4983307;28;213174;-69
2023/04/17 08:25:12;;;;;;;38.92;31.08;;;11.70;99.90;;;;;;5055789;28;20068;-68
2023/04/17 08:27:41;;;;;;;38.03;30.73;;;11.60;99.90;;;;;;4996038;28;210201;-69
2023/04/17 08:30:09;;;;;;;35.58;29.40;;;11.50;99.90;;;;;;5054169;28;20060;-69
2023/04/17 08:32:40;;;;;;;37.55;30.67;;;11.40;99.90;;;;;;5005136;28;209895;-70
2023/04/17 08:35:10;;;;;;;35.00;30.02;;;11.40;99.90;;;;;;5071232;28;20055;-70
2023/04/17 08:37:37;;;;;;;35.00;27.73;;;11.50;99.90;;;;;;4998391;28;209821;-70
2023/04/17 08:40:07;;;;;;;33.25;27.45;;;11.70;99.90;;;;;;5069294;28;20059;-69
2023/04/17 08:42:35;;;;;;;32.80;26.48;;;11.90;99.90;;;;;;5014229;28;206634;-69
2023/04/17 08:45:08;;;;;;;33.17;27.33;;;12.00;99.90;;;;;;5079605;28;20474;-70
2023/04/17 08:47:35;;;;;;;32.03;27.02;;;12.20;99.90;;;;;;5011410;28;213362;-70
2023/04/17 08:50:10;;;;;;;32.25;25.92;;;12.40;99.90;;;;;;5072284;28;20053;-70
2023/04/17 08:52:44;;;;;;;31.35;24.83;;;12.50;99.90;;;;;;5033566;28;212989;-69
2023/04/17 08:55:12;;;;;;;32.70;24.52;;;12.60;99.90;;;;;;5076070;28;20052;-69
2023/04/17 08:58:02;;;;;;;30.83;24.60;;;12.80;99.90;;;;;;4989395;28;209998;-70
2023/04/17 09:00:30;;;;;;;31.88;24.90;;;12.90;99.90;;;;;;5081773;28;20259;-70
2023/04/17 09:02:58;;;;;;;28.77;24.27;;;12.80;99.90;;;;;;4970510;28;202320;-69
2023/04/17 09:05:29;;;;;;;28.40;23.42;;;12.90;99.90;;;;;;5056200;28;20067;-69
2023/04/17 09:08:15;;;;;;;31.25;24.52;;;12.90;99.90;;;;;;5014546;28;213172;-69
2023/04/17 09:10:47;;;;;;;29.05;23.38;;;13.30;99.90;;;;;;5060280;28;20053;-70
2023/04/17 09:13:14;;;;;;;;;;;13.60;99.90;;;;;;5000895;28;218287;-70
2023/04/17 09:15:41;;;;;;;30.52;22.67;;;14.30;99.90;;;;;;5055258;28;19927;-70
2023/04/17 09:18:22;;;;;;;26.70;23.20;;;14.60;99.90;;;;;;4988490;28;220887;-70
2023/04/17 09:20:50;;;;;;;25.33;22.58;;;14.80;99.90;;;;;;5061230;28;20049;-69
2023/04/17 09:23:16;;;;;;;26.88;21.77;;;15.00;99.90;;;;;;4985288;28;214577;-70
2023/04/17 09:25:42;;;;;;;25.02;20.65;;;14.90;99.90;;;;;;5060184;28;20048;-70
2023/04/17 09:28:12;;;;;;;24.55;20.52;;;15.20;99.90;;;;;;4998359;28;205768;-70
2023/04/17 09:30:40;;;;;;;23.83;19.10;;;15.50;99.90;;;;;;5059887;28;20056;-70
2023/04/17 09:33:08;;;;;;;24.45;19.08;;;16.00;99.90;;;;;;5004274;28;207216;-71
2023/04/17 09:35:37;;;;;;;24.17;18.15;;;16.10;99.90;;;;;;5079028;28;20040;-70
2023/04/17 09:38:03;;;;;;;21.63;17.92;;;16.40;99.90;;;;;;5007542;28;213224;-69
2023/04/17 09:40:40;;;;;;;22.13;18.10;;;16.80;99.90;;;;;;5080177;28;20048;-69
2023/04/17 09:43:09;;;;;;;21.42;17.02;;;16.80;99.90;;;;;;4976428;28;213550;-69
2023/04/17 09:45:37;;;;;;;22.33;17.05;;;17.30;99.90;;;;;;5080494;28;20055;-70
2023/04/17 09:48:11;;;;;;;21.00;15.98;;;17.50;99.90;;;;;;4994049;28;208955;-69
2023/04/17 09:50:38;;;;;;;20.35;16.40;;;17.50;99.90;;;;;;5061818;28;20056;-69
2023/04/17 09:53:06;;;;;;;19.33;15.05;;;17.60;99.90;;;;;;5002150;28;212776;-70
2023/04/17 09:55:33;;;;;;;21.30;15.43;;;17.60;99.90;;;;;;5087618;28;20055;-70
2023/04/17 09:58:06;;;;;;;19.80;15.23;;;17.10;99.90;;;;;;5009599;28;212583;-70
2023/04/17 10:00:32;;;;;;;20.20;14.98;;;16.80;99.90;;;;;;5080525;28;20724;-70
2023/04/17 10:02:58;;;;;;;18.48;14.00;;;17.20;99.90;;;;;;5018639;28;218342;-70
2023/04/17 10:05:27;;;;;;;21.35;14.90;;;17.50;99.90;;;;;;5077429;28;20055;-70
2023/04/17 10:07:55;;;;;;;18.55;14.32;;;17.40;99.90;;;;;;5001739;28;215123;-70
2023/04/17 10:10:26;;;;;;;19.50;14.73;;;17.10;99.90;;;;;;5085869;28;20040;-70
2023/04/17 10:12:55;;;;;;;17.45;14.15;;;16.60;99.90;;;;;;4997299;28;213403;-69
2023/04/17 10:15:23;;;;;;;18.90;14.23;;;17.60;99.90;;;;;;5075298;28;20063;-69
2023/04/17 10:17:49;;;;;;;18.98;13.88;;;18.40;99.90;;;;;;5009221;28;206253;-71
2023/04/17 10:20:18;;;;;;;20.38;13.95;;;18.70;99.90;;;;;;5078570;28;20055;-70
2023/04/17 10:22:48;;;;;;;18.23;13.82;;;18.50;99.90;;;;;;5027790;28;210742;-70
2023/04/17 10:25:14;;;;;;;20.33;14.18;;;17.60;99.90;;;;;;5076929;28;20379;-69
2023/04/17 10:27:40;;;;;;;18.27;13.57;;;16.80;99.90;;;;;;5019564;28;205878;-70
2023/04/17 10:30:14;;;;;;;18.13;13.20;;;16.40;99.90;;;;;;5078863;28;20053;-70
2023/04/17 10:32:43;;;;;;;19.13;13.57;;;16.20;99.90;;;;;;4995714;28;218609;-70
2023/04/17 10:35:16;;;;;;;18.20;13.30;;;17.00;99.90;;;;;;5072882;28;20052;-68
2023/04/17 10:37:50;;;;;;;20.70;13.75;;;17.60;99.90;;;;;;5011725;28;213373;-69
2023/04/17 10:40:21;;;;;;;19.80;12.75;;;18.30;99.90;;;;;;5076428;28;20113;-69
2023/04/17 10:43:11;;;;;;;20.85;13.15;;;19.30;99.90;;;;;;5021824;28;214107;-70
2023/04/17 10:46:11;;;;;;;20.00;12.80;;;20.40;98.50;;;;;;5079135;27;20059;-70
2023/04/17 10:48:49;;;;;;;17.83;12.90;;;20.60;96.20;;;;;;4978621;28;204277;-70
2023/04/17 10:51:22;;;;;;;16.80;11.98;;;20.10;96.20;;;;;;5001319;28;213352;-70
2023/04/17 10:53:58;;;;;;;16.42;11.60;;;20.60;97.50;;;;;;5086307;28;20052;-69
2023/04/17 10:56:41;;;;;;;16.80;12.20;;;20.80;97.60;;;;;;5010209;28;213090;-70
2023/04/17 10:59:15;;;;;;;20.35;11.52;;;19.60;95.70;;;;;;5075314;28;20075;-70
2023/04/17 11:01:47;;;;;;;16.67;11.63;;;19.80;96.70;;;;;;5023132;28;212920;-71
2023/04/17 11:04:28;;;;;;;17.65;11.98;;;20.50;97.40;;;;;;5061277;28;20051;-70
2023/04/17 11:06:54;;;;;;;;;;;20.70;96.20;;;;;;5013636;28;208933;-70
2023/04/17 11:09:22;;;;;;;15.55;11.00;;;20.70;95.80;;;;;;5071701;28;20384;-70
2023/04/17 11:11:48;;;;;;;16.90;10.27;;;19.90;96.10;;;;;;5022812;28;209169;-70
2023/04/17 11:14:16;;;;;;;16.38;11.05;;;20.30;96.10;;;;;;5065184;28;20044;-70
2023/04/17 11:16:45;;;;;;;16.33;11.23;;;20.50;96.60;;;;;;5026262;28;220932;-70
2023/04/17 11:19:16;;;;;;;16.98;10.55;;;19.60;95.90;;;;;;5067742;28;20056;-70
2023/04/17 11:21:49;;;;;;;16.48;10.30;;;20.00;97.50;;;;;;5022090;28;210644;-69
2023/04/17 11:24:25;;;;;;;14.65;10.43;;;20.70;95.50;;;;;;5064364;28;20036;-70
2023/04/17 11:26:52;;;;;;;17.17;11.48;;;21.30;94.90;;;;;;5010024;28;207370;-71
2023/04/17 11:29:20;;;;;;;17.15;10.82;;;21.70;94.70;;;;;;5055656;28;20060;-70
2023/04/17 11:31:48;;;;;;;13.98;10.55;;;21.10;94.80;;;;;;5016487;28;219309;-69
2023/04/17 11:34:15;;;;;;;18.95;11.15;;;20.80;95.00;;;;;;5080578;28;20071;-70
2023/04/17 11:36:58;;;;;;;15.27;10.70;;;21.10;95.40;;;;;;5030158;28;210026;-70
2023/04/17 11:39:29;;;;;;;15.43;10.40;;;21.20;94.20;;;;;;5088073;28;20063;-70
2023/04/17 11:41:56;;;;;;;15.40;10.73;;;21.00;94.70;;;;;;5022571;28;206392;-70
2023/04/17 11:44:22;;;;;;;16.85;11.27;;;20.70;94.70;;;;;;5085630;28;20037;-70
2023/04/17 11:46:57;;;;;;;19.40;10.98;;;20.80;94.70;;;;;;5034437;28;209041;-71
2023/04/17 11:49:28;;;;;;;15.05;10.80;;;20.70;95.10;;;;;;5080209;28;20062;-71
2023/04/17 11:51:55;;;;;;;16.48;10.68;;;19.60;95.30;;;;;;5025754;28;206450;-71
2023/04/17 11:54:26;;;;;;;17.92;11.18;;;19.20;95.10;;;;;;5071456;28;20063;-71
2023/04/17 11:56:58;;;;;;;18.75;10.95;;;19.00;95.40;;;;;;5013760;28;209876;-71
2023/04/17 11:59:29;;;;;;;18.23;11.85;;;18.40;95.70;;;;;;5068586;28;20055;-71
2023/04/17 12:01:55;;;;;;;16.35;11.18;;;18.60;95.80;;;;;;5027042;28;215503;-71
2023/04/17 12:04:21;;;;;;;17.98;11.98;;;18.70;96.00;;;;;;5083029;28;20062;-72
2023/04/17 12:06:47;;;;;;;16.20;11.82;;;19.10;96.20;;;;;;5022620;28;212652;-70
2023/04/17 12:09:22;;;;;;;15.65;10.80;;;19.90;95.80;;;;;;5081333;28;20048;-71
2023/04/17 12:11:49;;;;;;;16.30;11.77;;;20.60;95.10;;;;;;5016729;28;211659;-72
2023/04/17 12:14:15;;;;;;;18.52;11.50;;;21.40;94.80;;;;;;5061894;28;20049;-72
2023/04/17 12:16:42;;;;;;;16.50;10.30;;;22.20;93.40;;;;;;5011995;28;212427;-70
2023/04/17 12:19:09;;;;;;;15.00;10.30;;;22.20;93.70;;;;;;5065658;28;20521;-72
2023/04/17 12:21:35;;;;;;;17.05;10.18;;;21.60;91.90;;;;;;5028295;28;211488;-72
2023/04/17 12:24:01;;;;;;;16.00;10.50;;;21.40;93.40;;;;;;5078728;28;20532;-71
2023/04/17 12:26:27;;;;;;;16.63;10.00;;;21.60;92.50;;;;;;5016720;28;210988;-71
2023/04/17 12:28:55;;;;;;;15.32;10.68;;;21.40;92.40;;;;;;5065159;28;20051;-71
2023/04/17 12:31:21;;;;;;;17.57;10.17;;;21.60;93.00;;;;;;5026629;28;209200;-71